Time;durP1;ratioP1;P1;durP2;ratioP2;P2;SDS_P1;SDS_P2;PMS_P1;PMS_P2;Temp;Humidity;BMP_temperature;BMP_pressure;BME280_temperature;BME280_humidity;BME280_pressure;Samples;Min_cycle;Max_cycle;Signal;HPM_P1;HPM_P2
2021/12/30 00:02:15;;;;;;;;;0.00;0.00;;;;;14.13;86.07;100828.47;5032839;28;45370;-79
2021/12/30 00:04:40;;;;;;;;;0.00;0.00;;;;;14.12;85.61;100832.91;5032449;28;45586;-78
2021/12/30 00:07:08;;;;;;;;;0.00;0.00;;;;;14.11;86.06;100830.31;5039926;28;45732;-79
2021/12/30 00:09:34;;;;;;;;;0.00;0.00;;;;;14.13;85.92;100845.28;5044382;28;45490;-77
2021/12/30 00:11:59;;;;;;;;;0.00;0.00;;;;;14.11;85.90;100839.16;5038799;28;45392;-79
2021/12/30 00:14:25;;;;;;;;;0.00;0.00;;;;;14.13;85.74;100844.41;5025973;28;45422;-80
2021/12/30 00:16:50;;;;;;;;;0.00;0.00;;;;;14.14;86.14;100847.03;5037043;28;46267;-79
2021/12/30 00:19:15;;;;;;;;;0.00;0.00;;;;;14.15;85.90;100838.16;5027856;28;45768;-78
2021/12/30 00:21:41;;;;;;;;;0.00;0.00;;;;;14.16;85.93;100839.00;5046609;28;45558;-77
2021/12/30 00:24:06;;;;;;;;;0.00;0.00;;;;;14.15;85.61;100846.13;5044707;28;45405;-78
2021/12/30 00:26:32;;;;;;;;;0.00;0.00;;;;;14.14;85.99;100840.84;5037019;28;45552;-78
2021/12/30 00:28:57;;;;;;;;;0.00;0.00;;;;;14.16;85.76;100839.88;5046853;28;45547;-79
2021/12/30 00:31:23;;;;;;;;;1.00;0.00;;;;;14.16;85.57;100841.66;5033727;28;45387;-79
2021/12/30 00:33:48;;;;;;;;;0.00;0.00;;;;;14.17;85.60;100840.75;5039496;28;45458;-79
2021/12/30 00:36:14;;;;;;;;;0.00;0.00;;;;;14.17;85.83;100843.41;5035414;28;46555;-77
2021/12/30 00:38:42;;;;;;;;;0.00;0.00;;;;;14.18;85.68;100853.09;5044259;28;45390;-78
2021/12/30 00:41:09;;;;;;;;;0.00;0.00;;;;;14.17;85.67;100848.72;5037787;28;45465;-79
2021/12/30 00:43:35;;;;;;;;;0.00;0.00;;;;;14.18;85.72;100847.78;5041561;28;45409;-76
2021/12/30 00:46:01;;;;;;;;;0.00;0.00;;;;;14.14;85.79;100841.72;5039722;28;45501;-76
2021/12/30 00:48:26;;;;;;;;;0.00;0.00;;;;;14.17;85.97;100840.75;5051228;28;45543;-76
2021/12/30 00:50:52;;;;;;;;;0.00;0.00;;;;;14.15;86.27;100850.53;5038166;28;45415;-75
2021/12/30 00:53:18;;;;;;;;;0.00;0.00;;;;;14.13;86.04;100855.03;5042214;28;45528;-76
2021/12/30 00:55:44;;;;;;;;;0.00;0.00;;;;;14.13;86.20;100866.53;5023839;28;46198;-78
2021/12/30 00:58:10;;;;;;;;;0.00;0.00;;;;;14.16;86.14;100863.78;5049822;28;45516;-78
2021/12/30 01:00:39;;;;;;;;;0.00;0.00;;;;;14.15;86.13;100871.81;5047626;28;45458;-77
2021/12/30 01:03:04;;;;;;;;;0.25;0.25;;;;;14.14;86.20;100873.59;5044762;28;45627;-78
2021/12/30 01:05:30;;;;;;;;;0.00;0.00;;;;;14.14;86.06;100870.94;5043958;28;46124;-78
2021/12/30 01:07:56;;;;;;;;;0.00;0.00;;;;;14.13;86.49;100879.81;5043966;28;45422;-77
2021/12/30 01:10:23;;;;;;;;;0.00;0.00;;;;;14.15;86.36;100879.78;5042674;28;45406;-78
2021/12/30 01:12:49;;;;;;;;;0.00;0.00;;;;;14.14;86.37;100886.03;5036174;28;45358;-78
2021/12/30 01:15:17;;;;;;;;;0.00;0.00;;;;;14.17;86.32;100891.25;5043402;28;46092;-80
2021/12/30 01:20:11;;;;;;;;;0.00;0.00;;;;;14.14;86.62;100899.31;5046311;28;45444;-75
2021/12/30 01:22:37;;;;;;;;;0.00;0.00;;;;;14.15;86.46;100906.38;5019298;28;45427;-76
2021/12/30 01:25:07;;;;;;;;;0.00;0.00;;;;;14.16;86.50;100908.13;5030620;28;45926;-76
2021/12/30 01:27:36;;;;;;;;;0.00;0.00;;;;;14.14;86.65;100915.28;5033354;28;45444;-76
2021/12/30 01:30:06;;;;;;;;;0.00;0.00;;;;;14.16;86.34;100922.25;5028819;28;45275;-77
2021/12/30 01:32:32;;;;;;;;;0.00;0.00;;;;;14.16;86.57;100913.44;5028442;28;45482;-74
2021/12/30 01:34:59;;;;;;;;;0.00;0.00;;;;;14.14;86.59;100913.47;5019753;28;46328;-77
2021/12/30 01:37:24;;;;;;;;;0.00;0.00;;;;;14.13;87.09;100918.84;5032065;28;45512;-76
2021/12/30 01:39:52;;;;;;;;;0.00;0.00;;;;;14.19;86.85;100931.94;5049391;28;45497;-76
2021/12/30 01:42:18;;;;;;;;;0.00;0.00;;;;;14.15;87.06;100922.31;5042245;28;45578;-77
2021/12/30 01:44:43;;;;;;;;;0.00;0.00;;;;;14.14;87.37;100940.06;5068702;28;46372;-75
2021/12/30 01:47:09;;;;;;;;;0.00;0.00;;;;;14.16;87.17;100930.25;5047389;28;45458;-76
2021/12/30 01:49:34;;;;;;;;;0.00;0.00;;;;;14.16;87.30;100930.25;5045788;28;45503;-75
2021/12/30 01:52:00;;;;;;;;;0.00;0.00;;;;;14.17;87.09;100941.75;5042428;28;45512;-76
2021/12/30 01:54:26;;;;;;;;;0.50;0.50;;;;;14.17;87.26;100945.28;5039987;28;45967;-76
2021/12/30 01:56:56;;;;;;;;;0.00;0.00;;;;;14.18;87.23;100932.84;5044155;28;45496;-74
2021/12/30 01:59:23;;;;;;;;;0.50;0.00;;;;;14.15;87.43;100932.94;5043657;28;45441;-75
2021/12/30 02:01:56;;;;;;;;;0.00;0.00;;;;;14.18;87.15;100943.47;5036526;28;45384;-76
2021/12/30 02:04:22;;;;;;;;;0.00;0.00;;;;;14.19;87.30;100935.47;5035460;28;47424;-76
2021/12/30 02:06:47;;;;;;;;;0.00;0.00;;;;;14.18;87.51;100935.50;5030739;28;45425;-76
2021/12/30 02:09:15;;;;;;;;;0.00;0.00;;;;;14.16;87.38;100937.34;5038782;28;45465;-75
2021/12/30 02:11:41;;;;;;;;;0.50;0.00;;;;;14.19;87.10;100950.56;5043844;28;45365;-76
2021/12/30 02:14:06;;;;;;;;;0.00;0.00;;;;;14.17;87.22;100941.75;5042597;28;45473;-76
2021/12/30 02:16:31;;;;;;;;;3.00;3.00;;;;;14.15;87.46;100947.13;5044361;28;45461;-75
2021/12/30 02:18:57;;;;;;;;;0.00;0.00;;;;;14.14;87.25;100949.81;5047309;28;45402;-75
2021/12/30 02:21:22;;;;;;;;;0.00;0.00;;;;;14.13;87.50;100950.72;5039383;28;45372;-75
2021/12/30 02:23:47;;;;;;;;;0.00;0.00;;;;;14.14;87.53;100952.50;5042979;28;45448;-75
2021/12/30 02:26:17;;;;;;;;;1.00;0.00;;;;;14.12;87.28;100951.63;5038023;28;45475;-76
2021/12/30 02:28:43;;;;;;;;;0.00;0.00;;;;;14.14;87.34;100960.47;5046727;28;45335;-78
2021/12/30 02:31:11;;;;;;;;;0.00;0.00;;;;;14.19;87.16;100969.16;5041158;28;45284;-78
2021/12/30 02:33:39;;;;;;;;;0.00;0.00;;;;;14.20;86.88;100962.94;5052113;28;45551;-76
2021/12/30 02:36:05;;;;;;;;;1.00;0.00;;;;;14.21;86.98;100976.19;5049846;28;45589;-76
2021/12/30 02:38:30;;;;;;;;;0.00;0.00;;;;;14.17;86.78;100963.88;5054935;28;45533;-76
2021/12/30 02:40:58;;;;;;;;;0.00;0.00;;;;;14.21;87.08;100969.97;5036401;28;46920;-75
2021/12/30 02:43:26;;;;;;;;;0.00;0.00;;;;;14.22;86.83;100977.03;5035027;28;45395;-76
2021/12/30 02:45:53;;;;;;;;;0.00;0.00;;;;;14.22;86.62;100983.22;5035967;28;45500;-75
2021/12/30 02:48:29;;;;;;;;;0.00;0.00;;;;;14.21;86.58;100985.94;5034709;28;45501;-76
2021/12/30 02:50:58;;;;;;;;;0.00;0.00;;;;;14.21;86.77;100984.16;5045035;28;45534;-77
2021/12/30 02:53:24;;;;;;;;;0.00;0.00;;;;;14.19;86.55;100987.75;5049775;28;45457;-76
2021/12/30 02:55:51;;;;;;;;;0.00;0.00;;;;;14.18;86.36;100981.59;5039477;28;45414;-75
2021/12/30 02:58:17;;;;;;;;;0.00;0.00;;;;;14.19;86.65;100983.31;5048029;28;45306;-76
2021/12/30 03:00:44;;;;;;;;;0.00;0.00;;;;;14.20;86.29;100992.19;5039652;28;45433;-77
2021/12/30 03:03:21;;;;;;;;;0.00;0.00;;;;;14.18;86.17;100994.00;5043254;28;45441;-75
2021/12/30 03:05:48;;;;;;;;;0.00;0.00;;;;;14.19;86.49;100999.25;5023707;28;45543;-76
2021/12/30 03:08:16;;;;;;;;;0.00;0.00;;;;;14.19;86.00;100982.44;5055732;28;45349;-75
2021/12/30 03:10:42;;;;;;;;;0.00;0.00;;;;;14.18;86.15;100980.69;5041010;28;45766;-75
2021/12/30 03:13:10;;;;;;;;;0.00;0.00;;;;;14.20;86.44;100986.88;5050603;28;45599;-75
2021/12/30 03:15:37;;;;;;;;;0.00;0.00;;;;;14.20;86.06;100985.06;5044297;28;45473;-76
2021/12/30 03:18:04;;;;;;;;;0.00;0.00;;;;;14.21;85.45;100977.94;5031564;28;45400;-75
2021/12/30 03:20:36;;;;;;;;;0.00;0.00;;;;;14.21;85.73;100980.59;5036058;28;45411;-76
2021/12/30 03:23:03;;;;;;;;;0.00;0.00;;;;;14.18;85.72;100980.69;5052308;28;45445;-75
2021/12/30 03:25:30;;;;;;;;;0.00;0.00;;;;;14.21;85.38;100985.94;5051721;28;45571;-78
2021/12/30 03:27:55;;;;;;;;;0.00;0.00;;;;;14.20;85.38;100986.88;5044870;28;45478;-77
2021/12/30 03:30:21;;;;;;;;;1.00;0.00;;;;;14.18;85.36;100973.63;5049598;28;45587;-77
2021/12/30 03:32:47;;;;;;;;;0.00;0.00;;;;;14.23;85.32;100984.13;5050417;28;45738;-78
2021/12/30 03:35:14;;;;;;;;;0.00;0.00;;;;;14.23;85.14;100992.09;5045322;28;45507;-78
2021/12/30 03:37:40;;;;;;;;;0.00;0.00;;;;;14.22;85.20;100985.03;5046556;28;45499;-78
2021/12/30 03:40:10;;;;;;;;;0.50;0.00;;;;;14.23;85.34;100992.09;5049211;28;45624;-78
2021/12/30 03:42:36;;;;;;;;;0.00;0.00;;;;;14.25;84.88;100986.72;5043130;28;45336;-79
2021/12/30 03:45:03;;;;;;;;;1.00;0.00;;;;;14.22;84.91;100990.34;5039528;28;45643;-78
2021/12/30 03:47:29;;;;;;;;;0.00;0.00;;;;;14.20;84.67;100985.06;5035399;28;45591;-78
2021/12/30 03:49:54;;;;;;;;;0.00;0.00;;;;;14.24;84.73;100991.16;5036146;28;45629;-77
2021/12/30 03:52:26;;;;;;;;;0.00;0.00;;;;;14.19;84.46;100980.66;5053809;28;45484;-78
2021/12/30 03:54:51;;;;;;;;;1.00;0.00;;;;;14.24;84.95;100991.16;5043366;28;45473;-78
2021/12/30 03:57:16;;;;;;;;;0.00;0.00;;;;;14.23;84.70;100978.81;5046754;28;45378;-77
2021/12/30 03:59:42;;;;;;;;;0.00;0.00;;;;;14.24;84.49;100983.19;5042716;28;45415;-79
2021/12/30 04:02:07;;;;;;;;;1.00;0.00;;;;;14.26;84.43;100989.34;5037998;28;46200;-77
2021/12/30 04:04:33;;;;;;;;;0.00;0.00;;;;;14.24;84.45;100988.50;5034228;28;45348;-76
2021/12/30 04:06:59;;;;;;;;;0.00;0.00;;;;;14.25;84.38;100982.28;5043503;28;45529;-76
2021/12/30 04:09:24;;;;;;;;;0.00;0.00;;;;;14.23;84.29;100978.81;5038439;28;45406;-76
2021/12/30 04:11:50;;;;;;;;;0.00;0.00;;;;;14.27;84.04;100983.13;5046056;28;45953;-76
2021/12/30 04:14:15;;;;;;;;;0.00;0.00;;;;;14.22;84.07;100974.38;5050153;28;45490;-76
2021/12/30 04:16:41;;;;;;;;;0.00;0.00;;;;;14.26;84.09;100983.16;5053200;28;45564;-75
2021/12/30 04:19:07;;;;;;;;;0.00;0.00;;;;;14.25;84.11;100984.94;5034281;28;45521;-76
2021/12/30 04:21:32;;;;;;;;;0.00;0.00;;;;;14.25;83.91;100990.25;5032372;28;46238;-76
2021/12/30 04:23:58;;;;;;;;;0.00;0.00;;;;;14.25;83.99;100986.72;5039445;28;45470;-76
2021/12/30 04:26:23;;;;;;;;;0.00;0.00;;;;;14.25;83.76;100984.06;5033478;28;45568;-76
2021/12/30 04:28:49;;;;;;;;;1.00;0.00;;;;;14.28;83.83;100982.19;5036269;28;45713;-76
2021/12/30 04:31:14;;;;;;;;;0.00;0.00;;;;;14.29;83.77;100975.09;5033422;28;45521;-76
2021/12/30 04:33:41;;;;;;;;;0.00;0.00;;;;;14.27;83.82;100972.50;5034202;28;45336;-75
2021/12/30 04:36:07;;;;;;;;;0.00;0.00;;;;;14.25;84.11;100958.34;5038655;28;45490;-74
2021/12/30 04:38:33;;;;;;;;;0.00;0.00;;;;;14.26;83.92;100977.84;5049350;28;45509;-76
2021/12/30 04:40:59;;;;;;;;;0.00;0.00;;;;;14.29;83.86;100989.25;5045274;28;45566;-76
2021/12/30 04:43:25;;;;;;;;;0.75;0.00;;;;;14.29;83.92;100973.31;5045630;28;45400;-74
2021/12/30 04:45:51;;;;;;;;;0.00;0.00;;;;;14.29;83.48;100977.75;5044203;28;45655;-76
2021/12/30 04:48:17;;;;;;;;;0.00;0.00;;;;;14.28;83.52;100989.28;5040877;28;45649;-75
2021/12/30 04:50:46;;;;;;;;;0.00;0.00;;;;;14.25;83.74;100987.59;5045310;28;47564;-75
2021/12/30 04:53:13;;;;;;;;;0.00;0.00;;;;;14.28;83.60;100997.28;5046781;28;45444;-75
2021/12/30 04:55:38;;;;;;;;;0.00;0.00;;;;;14.25;83.47;100997.38;5030133;28;45434;-75
2021/12/30 04:58:04;;;;;;;;;0.00;0.00;;;;;14.24;83.54;101000.94;5048150;28;45605;-77
2021/12/30 05:00:31;;;;;;;;;2.25;0.00;;;;;14.19;83.34;100993.94;5037760;28;46043;-76
2021/12/30 05:03:11;;;;;;;;;0.00;0.00;;;;;14.17;83.66;101005.56;5036419;28;45539;-76
2021/12/30 05:05:41;;;;;;;;;0.00;0.00;;;;;14.13;84.01;101001.22;5027465;28;45387;-78
2021/12/30 05:08:07;;;;;;;;;0.25;0.00;;;;;14.10;83.77;101012.81;5033820;28;45628;-78
2021/12/30 05:10:34;;;;;;;;;0.75;0.00;;;;;14.06;83.76;101015.59;5036783;28;46177;-77
2021/12/30 05:13:01;;;;;;;;;0.00;0.00;;;;;14.04;84.11;101031.59;5045821;28;45803;-78
2021/12/30 05:15:26;;;;;;;;;0.00;0.00;;;;;13.99;84.27;101034.38;5030350;28;45361;-78
2021/12/30 05:17:52;;;;;;;;;0.00;0.00;;;;;14.01;83.96;101039.66;5035199;28;45566;-78
2021/12/30 05:20:17;;;;;;;;;0.00;0.00;;;;;13.99;84.19;101039.69;5018070;28;45418;-79
2021/12/30 05:22:43;;;;;;;;;0.00;0.00;;;;;13.95;84.36;101032.72;5042032;28;45441;-78
2021/12/30 05:25:10;;;;;;;;;0.00;0.00;;;;;13.99;84.20;101034.38;5044220;28;45533;-78
2021/12/30 05:27:35;;;;;;;;;0.00;0.00;;;;;13.97;83.68;101033.56;5045242;28;45517;-77
2021/12/30 05:30:03;;;;;;;;;0.00;0.00;;;;;13.92;84.44;101032.78;5044975;28;46507;-78
2021/12/30 05:32:28;;;;;;;;;0.25;0.00;;;;;13.90;84.16;101029.31;5043108;28;45488;-78
2021/12/30 05:34:53;;;;;;;;;0.00;0.00;;;;;13.89;84.46;101030.22;5040959;28;45603;-77
2021/12/30 05:37:19;;;;;;;;;0.50;0.00;;;;;13.85;84.62;101025.91;5035359;28;45366;-78
2021/12/30 05:39:44;;;;;;;;;0.25;0.00;;;;;13.83;84.80;101054.28;5027949;28;45443;-79
2021/12/30 05:42:09;;;;;;;;;0.00;0.00;;;;;13.76;84.95;101056.25;5034085;28;45380;-77
2021/12/30 05:44:35;;;;;;;;;0.00;0.00;;;;;13.74;85.19;101063.38;5040711;28;45568;-78
2021/12/30 05:47:00;;;;;;;;;0.00;0.00;;;;;13.68;85.26;101072.38;5035159;28;45481;-77
2021/12/30 05:49:25;;;;;;;;;0.00;0.00;;;;;13.65;85.44;101063.63;5020396;28;45416;-78
2021/12/30 05:51:51;;;;;;;;;1.00;0.00;;;;;13.60;85.65;101063.69;5029852;28;45383;-77
2021/12/30 05:54:16;;;;;;;;;1.00;0.00;;;;;13.58;85.71;101052.25;5043528;28;45342;-78
2021/12/30 05:56:42;;;;;;;;;0.00;0.00;;;;;13.56;85.63;101061.16;5039389;28;45610;-78
2021/12/30 05:59:07;;;;;;;;;0.00;0.00;;;;;13.52;85.76;101063.03;5047263;28;45377;-79
2021/12/30 06:01:32;;;;;;;;;0.75;0.00;;;;;13.49;85.81;101057.81;5045965;28;45503;-77
2021/12/30 06:03:58;;;;;;;;;0.00;0.00;;;;;13.45;85.76;101074.72;5050847;28;45370;-80
2021/12/30 06:06:24;;;;;;;;;0.00;0.00;;;;;13.44;85.63;101078.28;5057193;28;45338;-78
2021/12/30 06:08:50;;;;;;;;;1.00;0.00;;;;;13.41;86.31;101081.03;5055388;28;45511;-78
2021/12/30 06:11:16;;;;;;;;;1.00;0.00;;;;;13.36;86.03;101080.25;5030747;28;45458;-79
2021/12/30 06:13:41;;;;;;;;;0.25;0.00;;;;;13.36;86.28;101085.56;5044500;28;45477;-78
2021/12/30 06:16:07;;;;;;;;;0.00;0.00;;;;;13.32;86.18;101096.22;5047694;28;45559;-78
2021/12/30 06:18:32;;;;;;;;;0.00;0.00;;;;;13.29;86.45;101088.31;5040071;28;45445;-78
2021/12/30 06:20:57;;;;;;;;;0.00;0.00;;;;;13.26;86.40;101090.19;5032121;28;45497;-77
2021/12/30 06:23:23;;;;;;;;;2.00;1.00;;;;;13.24;86.33;101098.19;5041011;28;45414;-78
2021/12/30 06:25:48;;;;;;;;;0.00;0.00;;;;;13.23;86.54;101093.75;5044005;28;45469;-77
2021/12/30 06:28:13;;;;;;;;;1.00;0.00;;;;;13.23;86.86;101098.22;5034039;28;45384;-78
2021/12/30 06:30:39;;;;;;;;;0.00;0.00;;;;;13.18;86.60;101087.69;5033789;28;45334;-78
2021/12/30 06:33:04;;;;;;;;;0.00;0.00;;;;;13.16;86.85;101089.50;5053572;28;45404;-79
2021/12/30 06:35:32;;;;;;;;;1.25;0.00;;;;;13.14;86.54;101080.72;5040182;28;45433;-77
2021/12/30 06:37:59;;;;;;;;;0.00;0.00;;;;;13.09;86.71;101086.13;5046845;28;47174;-78
2021/12/30 06:40:24;;;;;;;;;0.00;0.00;;;;;13.09;86.90;101087.91;5038884;28;45574;-78
2021/12/30 06:42:50;;;;;;;;;0.00;0.00;;;;;13.06;87.30;101094.16;5040875;28;45849;-78
2021/12/30 06:45:15;;;;;;;;;0.75;0.00;;;;;13.00;86.99;101088.97;5051844;28;45376;-78
2021/12/30 06:47:44;;;;;;;;;0.00;0.00;;;;;13.02;87.13;101096.91;5050277;28;46139;-78
2021/12/30 06:50:11;;;;;;;;;1.00;0.00;;;;;12.97;87.20;101083.75;5039367;28;45549;-79
2021/12/30 06:52:37;;;;;;;;;2.00;1.00;;;;;12.96;86.92;101098.78;5069059;28;45501;-78
2021/12/30 06:55:03;;;;;;;;;0.75;0.00;;;;;12.96;87.07;101105.88;5030376;28;45417;-78
2021/12/30 06:57:28;;;;;;;;;1.00;0.00;;;;;12.92;87.31;101105.06;5041699;28;46527;-78
2021/12/30 06:59:54;;;;;;;;;4.00;1.00;;;;;12.90;87.12;101104.22;5048975;28;45458;-78
2021/12/30 07:02:19;;;;;;;;;0.25;0.00;;;;;12.89;87.33;101113.09;5048349;28;45508;-76
2021/12/30 07:04:45;;;;;;;;;1.00;0.75;;;;;12.83;87.25;101107.91;5028510;28;45434;-79
2021/12/30 07:07:10;;;;;;;;;1.00;0.00;;;;;12.84;87.02;101109.66;5041157;28;45577;-77
2021/12/30 07:09:36;;;;;;;;;3.00;1.00;;;;;12.84;87.30;101109.66;5042135;28;45568;-78
2021/12/30 07:12:01;;;;;;;;;0.25;0.00;;;;;12.79;86.93;101112.41;5034998;28;45551;-78
2021/12/30 07:14:28;;;;;;;;;0.00;0.00;;;;;12.75;87.31;101117.78;5036414;28;45593;-78
2021/12/30 07:16:54;;;;;;;;;2.25;0.75;;;;;12.73;87.14;101124.91;5045545;28;46181;-77
2021/12/30 07:19:20;;;;;;;;;0.00;0.00;;;;;12.71;86.88;101124.94;5024350;28;45421;-79
2021/12/30 07:21:45;;;;;;;;;0.00;0.00;;;;;12.72;87.37;101133.78;5032499;28;45555;-78
2021/12/30 07:24:11;;;;;;;;;0.75;0.75;;;;;12.70;86.53;101131.16;5041791;28;45391;-78
2021/12/30 07:26:36;;;;;;;;;0.75;0.00;;;;;12.67;86.86;101138.31;5040220;28;46626;-78
2021/12/30 07:29:03;;;;;;;;;0.00;0.00;;;;;12.67;86.89;101133.00;5038902;28;45960;-80
2021/12/30 07:31:29;;;;;;;;;2.75;0.25;;;;;12.66;86.91;101141.84;5052853;28;45560;-79
2021/12/30 07:33:55;;;;;;;;;0.25;0.00;;;;;12.64;86.80;101136.59;5050913;28;45617;-78
2021/12/30 07:36:20;;;;;;;;;10.00;0.25;;;;;12.64;86.28;101143.66;5045687;28;46302;-78
2021/12/30 07:38:47;;;;;;;;;1.00;0.00;;;;;12.65;86.23;101137.44;5027938;28;45536;-77
2021/12/30 07:41:12;;;;;;;;;0.50;0.00;;;;;12.62;86.23;101141.06;5037357;28;45478;-79
2021/12/30 07:43:38;;;;;;;;;2.50;1.00;;;;;12.64;86.45;101148.97;5050446;28;45353;-78
2021/12/30 07:46:06;;;;;;;;;0.50;0.25;;;;;12.66;86.31;101145.38;5054369;28;45945;-78
2021/12/30 07:48:31;;;;;;;;;0.00;0.00;;;;;12.64;86.37;101138.38;5043320;28;45615;-78
2021/12/30 07:50:58;;;;;;;;;3.00;1.25;;;;;12.65;86.19;101135.69;5045549;28;45503;-78
2021/12/30 07:53:23;;;;;;;;;1.00;1.00;;;;;12.66;85.77;101137.41;5037507;28;45400;-80
2021/12/30 07:55:49;;;;;;;;;3.75;1.00;;;;;12.68;85.59;101140.03;5035893;28;45414;-80
2021/12/30 07:58:15;;;;;;;;;0.50;0.00;;;;;12.71;85.75;101151.47;5045836;28;45662;-79
2021/12/30 08:00:40;;;;;;;;;1.50;0.00;;;;;12.72;85.41;101155.88;5050048;28;45515;-78
2021/12/30 08:03:06;;;;;;;;;4.00;0.25;;;;;12.75;85.38;101168.19;5034364;28;45482;-77
2021/12/30 08:05:31;;;;;;;;;6.00;0.50;;;;;12.75;85.31;101169.09;5036797;28;45346;-80
2021/12/30 08:07:57;;;;;;;;;1.00;0.00;;;;;12.80;85.18;101171.66;5049794;28;45346;-79
2021/12/30 08:10:24;;;;;;;;;2.25;1.50;;;;;12.82;85.00;101179.56;5053386;28;45346;-80
2021/12/30 08:12:50;;;;;;;;;6.50;5.75;;;;;12.84;85.12;101188.38;5044141;28;45577;-79
2021/12/30 08:15:17;;;;;;;;;24.25;21.50;;;;;12.87;84.82;101188.31;5053066;28;45963;-78
2021/12/30 08:17:44;;;;;;;;;2.50;1.25;;;;;12.89;84.17;101195.34;5026056;28;45348;-79
2021/12/30 08:20:11;;;;;;;;;3.75;1.00;;;;;12.91;84.55;101197.97;5031752;28;45527;-79
2021/12/30 08:22:36;;;;;;;;;1.00;1.00;;;;;12.92;84.36;101207.66;5034225;28;45409;-79
2021/12/30 08:25:05;;;;;;;;;4.00;0.50;;;;;12.93;83.55;101209.41;5037036;28;46162;-76
2021/12/30 08:27:30;;;;;;;;;1.50;0.25;;;;;12.93;83.78;101199.66;5043322;28;45446;-75
2021/12/30 08:29:56;;;;;;;;;4.00;0.50;;;;;12.93;83.23;101204.09;5045081;28;45585;-76
2021/12/30 08:32:21;;;;;;;;;2.00;0.75;;;;;12.96;83.55;101209.34;5037502;28;45427;-76
2021/12/30 08:34:47;;;;;;;;;1.00;0.00;;;;;12.96;83.38;101207.56;5033031;28;46053;-77
2021/12/30 08:37:13;;;;;;;;;1.00;0.00;;;;;13.00;83.38;101215.44;5047926;28;45489;-77
2021/12/30 08:39:40;;;;;;;;;1.00;1.00;;;;;13.01;83.22;101217.22;5032723;28;45451;-76
2021/12/30 08:42:15;;;;;;;;;0.00;0.00;;;;;13.04;83.32;101227.75;5043048;28;45409;-76
2021/12/30 08:44:40;;;;;;;;;5.00;1.50;;;;;13.04;83.02;101235.72;5025868;28;45038;-76
2021/12/30 08:47:06;;;;;;;;;0.50;0.50;;;;;13.06;82.93;101232.16;5022596;28;45523;-76
2021/12/30 08:49:31;;;;;;;;;1.00;1.00;;;;;13.08;82.60;101234.75;5029404;28;45428;-77
2021/12/30 08:51:57;;;;;;;;;0.00;0.00;;;;;13.09;82.82;101236.53;5042197;28;45714;-77
2021/12/30 08:54:22;;;;;;;;;0.25;0.00;;;;;13.12;82.73;101231.16;5028147;28;45605;-76
2021/12/30 08:56:47;;;;;;;;;2.00;1.00;;;;;13.14;82.21;101235.50;5046969;28;46982;-75
2021/12/30 08:59:14;;;;;;;;;4.50;0.25;;;;;13.17;82.51;101239.03;5037710;28;45343;-75
2021/12/30 09:01:40;;;;;;;;;2.00;0.75;;;;;13.21;82.56;101230.97;5031029;28;45384;-76
2021/12/30 09:04:05;;;;;;;;;1.50;0.00;;;;;13.24;82.20;101228.25;5036291;28;46403;-77
2021/12/30 09:06:31;;;;;;;;;0.00;0.00;;;;;13.24;81.75;101224.69;5037038;28;45571;-77
2021/12/30 09:08:56;;;;;;;;;1.00;1.00;;;;;13.27;82.23;101230.84;5030926;28;45574;-76
2021/12/30 09:11:21;;;;;;;;;6.50;0.00;;;;;13.28;81.97;101235.22;5038586;28;45516;-75
2021/12/30 09:13:47;;;;;;;;;2.00;0.00;;;;;13.26;81.77;101234.38;5035353;28;47113;-74
2021/12/30 09:16:12;;;;;;;;;4.00;0.25;;;;;13.29;81.80;101236.97;5041706;28;45480;-76
2021/12/30 09:18:38;;;;;;;;;4.00;0.00;;;;;13.28;81.96;101232.56;5025040;28;45489;-76
2021/12/30 09:21:03;;;;;;;;;1.00;1.00;;;;;13.36;81.74;101244.84;5036416;28;45528;-77
2021/12/30 09:23:28;;;;;;;;;1.00;1.00;;;;;13.42;81.65;101250.03;5037288;28;46339;-76
2021/12/30 09:25:56;;;;;;;;;1.75;0.00;;;;;13.47;81.32;101250.81;5041181;28;45501;-76
2021/12/30 09:28:24;;;;;;;;;1.00;1.00;;;;;13.52;81.37;101254.25;5044016;28;45780;-76
2021/12/30 09:30:49;;;;;;;;;0.00;0.00;;;;;13.55;81.02;101246.19;5035788;28;45377;-76
2021/12/30 09:33:15;;;;;;;;;1.00;1.00;;;;;13.61;81.15;101256.69;5040400;28;46312;-75
2021/12/30 09:35:43;;;;;;;;;0.00;0.00;;;;;13.68;80.84;101254.78;5036822;28;45399;-76
2021/12/30 09:38:08;;;;;;;;;2.50;1.00;;;;;13.78;80.00;101268.72;5038381;28;45548;-78
2021/12/30 09:40:33;;;;;;;;;0.00;0.00;;;;;13.77;80.08;101248.38;5042904;28;46034;-76
2021/12/30 09:43:04;;;;;;;;;4.00;2.00;;;;;13.90;79.80;101257.81;5035845;28;45417;-76
2021/12/30 09:45:33;;;;;;;;;2.50;0.75;;;;;14.02;79.29;101268.16;5030767;28;45573;-76
2021/12/30 09:48:00;;;;;;;;;2.00;1.00;;;;;14.07;78.81;101270.72;5042504;28;45579;-77
2021/12/30 09:50:33;;;;;;;;;4.25;1.00;;;;;14.15;78.69;101273.19;5044473;28;45583;-76
2021/12/30 09:52:59;;;;;;;;;1.00;1.00;;;;;14.19;78.36;101254.47;5053308;28;47322;-76
2021/12/30 09:55:25;;;;;;;;;1.00;0.25;;;;;14.24;78.41;101266.78;5043145;28;45383;-76
2021/12/30 09:57:52;;;;;;;;;0.00;0.00;;;;;14.28;78.32;101269.31;5038444;28;45465;-76
2021/12/30 10:00:18;;;;;;;;;0.50;0.00;;;;;14.33;77.64;101271.88;5034446;28;45523;-76
2021/12/30 10:02:45;;;;;;;;;4.50;1.25;;;;;14.32;77.72;101268.34;5039432;28;48377;-76
2021/12/30 10:05:19;;;;;;;;;0.25;0.25;;;;;14.31;77.74;101276.38;5035940;28;45433;-76
2021/12/30 10:07:46;;;;;;;;;1.75;1.75;;;;;14.32;77.71;101278.97;5031729;28;45532;-75
2021/12/30 10:10:57;;;;;;;;;2.00;2.00;;;;;14.43;77.62;101278.72;5045080;28;45596;-76
2021/12/30 10:13:29;;;;;;;;;0.00;0.00;;;;;14.53;77.09;101284.66;5002341;28;45598;-76
2021/12/30 10:15:58;;;;;;;;;0.75;0.00;;;;;14.58;76.96;101283.66;4993835;28;45558;-76
2021/12/30 10:18:25;;;;;;;;;4.75;0.25;;;;;14.64;76.91;101281.78;5005992;28;45436;-77
2021/12/30 10:20:52;;;;;;;;;3.00;3.00;;;;;14.71;76.35;101278.94;5004774;28;45527;-76
2021/12/30 10:23:21;;;;;;;;;0.00;0.00;;;;;14.76;76.14;101276.16;4994547;28;46261;-77
2021/12/30 10:25:51;;;;;;;;;6.50;1.25;;;;;14.81;75.76;101276.88;4992292;28;45452;-77
2021/12/30 10:28:31;;;;;;;;;1.00;1.00;;;;;14.77;75.52;101263.72;4993946;28;45496;-76
2021/12/30 10:31:16;;;;;;;;;0.00;0.00;;;;;14.96;75.27;101274.75;4981450;28;45668;-77
2021/12/30 10:33:52;;;;;;;;;2.50;1.00;;;;;15.03;75.13;101274.53;5008189;28;45596;-77
2021/12/30 10:36:29;;;;;;;;;0.50;0.50;;;;;15.16;74.90;101266.19;5004205;28;45434;-76
2021/12/30 10:39:13;;;;;;;;;2.00;0.75;;;;;15.13;74.41;101277.81;5002481;28;45364;-76
2021/12/30 10:41:38;;;;;;;;;1.00;1.00;;;;;15.10;74.66;101276.09;5014529;28;45404;-77
2021/12/30 10:44:05;;;;;;;;;2.50;2.50;;;;;15.11;74.57;101287.63;4993049;28;46133;-76
2021/12/30 10:46:30;;;;;;;;;0.50;0.50;;;;;15.11;74.58;101282.31;5004494;28;45562;-75
2021/12/30 10:48:57;;;;;;;;;3.00;1.00;;;;;15.13;74.87;101284.94;5040745;28;45761;-77
2021/12/30 10:51:36;;;;;;;;;0.00;0.00;;;;;15.27;74.29;101277.41;5037932;28;45383;-77
2021/12/30 10:54:10;;;;;;;;;0.00;0.00;;;;;15.46;73.47;101245.81;5051760;28;47629;-76
2021/12/30 10:56:39;;;;;;;;;4.00;2.75;;;;;15.43;73.22;101262.72;5050765;28;45556;-77
2021/12/30 10:59:10;;;;;;;;;0.25;0.25;;;;;15.43;73.27;101254.75;5051899;28;45311;-77
2021/12/30 11:01:41;;;;;;;;;2.00;2.00;;;;;15.47;73.50;101252.84;5028146;28;45457;-77
2021/12/30 11:04:07;;;;;;;;;0.25;0.25;;;;;15.52;73.21;101248.28;5044247;28;45659;-78
2021/12/30 11:06:33;;;;;;;;;1.75;0.00;;;;;15.51;73.10;101254.50;5045822;28;45385;-77
2021/12/30 11:09:20;;;;;;;;;1.00;1.00;;;;;15.51;73.03;101251.84;5047418;28;45500;-76
2021/12/30 11:11:50;;;;;;;;;0.00;0.00;;;;;15.51;73.21;101254.50;5038549;28;45456;-76
2021/12/30 11:14:20;;;;;;;;;0.00;0.00;;;;;15.45;73.19;101255.56;5039665;28;46053;-76
2021/12/30 11:17:04;;;;;;;;;1.75;0.00;;;;;15.44;73.13;101252.94;5036917;28;45467;-76
2021/12/30 11:19:31;;;;;;;;;1.00;1.00;;;;;15.41;73.29;101264.59;5032384;28;45588;-76
2021/12/30 11:22:02;;;;;;;;;0.25;0.25;;;;;15.40;73.38;101261.97;5044619;28;44827;-77
2021/12/30 11:24:29;;;;;;;;;1.00;1.00;;;;;15.39;73.36;101273.53;5036853;28;46100;-77
2021/12/30 11:26:55;;;;;;;;;3.00;1.00;;;;;15.34;73.55;101262.16;5046868;28;45411;-78